• Join FlightAware (Why Join?)
  • Login
  • US Flag 
06:48PM EDT


 

Airport Tracker/Info


-or-


 

Live Flight TrackerFlight Track Log ✈ XOJ552 ✈ 31-Jan-2014 ✈ KPIA - KDVT

Flight Track Log - Related Links

Times and Time Zones

All times are in EST time to prevent confusion due to time zone crossing. See the XOJ552 flight status page for this flight to view local times or setup timezone preferences in your user account.

Time Position Orientation Groundspeed Altitude Reporting Facility
EST Latitude Longitude Course Direction KTS MPH feet Rate Location/Type
04:05PM 40.6822 -89.7344 257° West 174 200 2,700  Level Kansas City Center
04:06PM 40.6786 -89.8242 267° West 242 278 7,400 4,080 Climbing Kansas City Center
04:07PM 40.6625 -89.9261 258° West 263 303 11,600 4,200 Climbing Chicago Center
04:08PM 40.6431 -90.0353 257° West 297 342 16,600 3,900 Climbing Chicago Center
04:10PM 40.6217 -90.1469 256° West 312 359 19,700 3,480 Climbing Chicago Center
04:11PM 40.5207 -90.4733 257° West  Level FlightAware Approximate
04:11PM 40.5967 -90.2808 256° West 314 361 23,800  Level Chicago Center
04:12PM 40.5744 -90.3956 256° West 321 369 25,900 1,980 Climbing Chicago Center
04:13PM 40.5508 -90.5153 255° West 336 387 27,900 1,440 Climbing Chicago Center
04:14PM 40.5281 -90.6383 256° West 345 397 29,000 1,200 Climbing Chicago Center
04:15PM 40.5033 -90.7653 256° West 356 410 30,500 1,740 Climbing Chicago Center
04:16PM 40.4794 -90.8889 256° West 352 405 32,600 1,800 Climbing Chicago Center
04:17PM 40.4531 -91.0281 256° West 332 382 34,300 1,800 Climbing Chicago Center
04:18PM 40.4314 -91.1394 256° West 320 368 36,400 1,860 Climbing Chicago Center
04:19PM 40.4131 -91.2231 254° West 307 353 37,900 1,200 Climbing Kansas City Center
04:20PM 40.3886 -91.3397 255° West 300 345 38,700 900 Climbing Kansas City Center
04:21PM 40.3694 -91.4461 257° West 301 346 39,800 960 Climbing Kansas City Center
04:22PM 40.3467 -91.5528 254° West 304 350 40,800 720 Climbing Kansas City Center
04:23PM 40.3256 -91.6617 256° West 308 354 41,300 480 Climbing Kansas City Center
04:24PM 40.3031 -91.7739 255° West 316 364 41,800 480 Climbing Kansas City Center
04:25PM 40.2758 -91.9122 256° West 326 375 42,400 480 Climbing Kansas City Center
04:26PM 40.2517 -92.0281 255° West 330 380 42,900 240 Climbing Kansas City Center
04:27PM 40.2275 -92.1453 255° West 333 383 43,000  Climbing Kansas City Center
04:28PM 40.2028 -92.2675 255° West 343 395 43,000  Level Kansas City Center
04:29PM 40.1753 -92.3967 254° West 348 400 43,000  Level Kansas City Center
04:30PM 40.1467 -92.5331 255° West 349 402 43,000  Level Kansas City Center
04:31PM 40.1236 -92.6503 256° West 346 398 43,000  Level Kansas City Center
04:32PM 40.0939 -92.7839 254° West 344 396 43,000  Level Kansas City Center
04:33PM 40.0681 -92.8994 254° West 345 397 43,000  Level Kansas City Center
04:34PM 40.0411 -93.0250 254° West 347 399 43,000  Level Kansas City Center
04:35PM 40.0142 -93.1444 254° West 345 397 43,000  Level Kansas City Center
04:36PM 39.9892 -93.2653 255° West 346 398 43,000  Level Kansas City Center
04:37PM 39.9606 -93.3844 253° West 348 400 43,000  Level Kansas City Center
04:38PM 39.9286 -93.5278 254° West 345 397 43,000  Level Kansas City Center
04:39PM 39.9028 -93.6492 255° West 348 400 43,000  Level Kansas City Center
04:40PM 39.8756 -93.7706 254° West 352 405 43,000  Level Kansas City Center
04:41PM 39.8483 -93.8900 254° West 347 399 43,000  Level Kansas City Center
04:42PM 39.8197 -94.0089 253° West 346 398 43,000  Level Kansas City Center
04:44PM 39.7883 -94.1478 254° West 343 395 43,000  Level Kansas City Center
04:45PM 39.7614 -94.2625 253° West 345 397 43,000  Level Kansas City Center
04:46PM 39.7306 -94.3978 254° West 350 403 43,000  Level Kansas City Center
04:47PM 39.7042 -94.5119 253° West 348 400 43,000  Level Kansas City Center
04:48PM 39.6728 -94.6461 253° West 349 402 43,000  Level Kansas City Center
04:49PM 39.6461 -94.7611 253° West 348 400 43,000  Level Kansas City Center
04:50PM 39.6142 -94.8939 253° West 347 399 43,000  Level Kansas City Center
04:51PM 39.5864 -95.0083 253° West 349 402 43,000  Level Kansas City Center
04:52PM 39.5539 -95.1417 252° West 349 402 43,000  Level Kansas City Center
04:53PM 39.5225 -95.2672 252° West 358 412 43,000  Level Kansas City Center
04:54PM 39.4925 -95.3919 253° West 349 402 43,000  Level Kansas City Center
04:55PM 39.4664 -95.5047 253° West 349 402 43,000  Level Kansas City Center
04:56PM 39.4333 -95.6389 252° West 352 405 43,000  Level Kansas City Center
04:57PM 39.4050 -95.7539 252° West 352 405 43,000  Level Kansas City Center
04:58PM 39.3717 -95.8875 252° West 353 406 43,000  Level Kansas City Center
04:59PM 39.3428 -96.0022 252° West 351 404 43,000  Level Kansas City Center
05:00PM 39.3089 -96.1361 252° West 351 404 43,000  Level Kansas City Center
05:01PM 39.2825 -96.2447 253° West 350 403 43,000  Level Kansas City Center
05:02PM 39.2464 -96.3836 251° West 352 405 43,000  Level Kansas City Center
05:03PM 39.2183 -96.4972 252° West 349 402 43,000  Level Kansas City Center
05:04PM 39.1850 -96.6303 252° West 349 402 43,000  Level Kansas City Center
05:05PM 39.1553 -96.7425 251° West 347 399 43,000  Level Kansas City Center
05:06PM 39.1222 -96.8731 252° West 345 397 43,000  Level Kansas City Center
05:07PM 39.0928 -96.9856 251° West 345 397 43,000  Level Kansas City Center
05:08PM 39.0578 -97.1161 251° West 345 397 43,000  Level Kansas City Center
05:09PM 39.0297 -97.2300 252° West 348 400 43,000  Level Kansas City Center
05:10PM 39.0000 -97.3431 251° West 349 402 43,000  Level Kansas City Center
05:11PM 38.9667 -97.4683 251° West 348 400 43,000  Level Kansas City Center
05:12PM 38.9342 -97.5861 251° West 348 400 43,000  Level Kansas City Center
05:13PM 38.9133 -97.7222 259° West 347 399 43,000  Level Kansas City Center
05:15PM 38.8978 -97.8517 261° West 347 399 43,000  Level Kansas City Center
05:16PM 38.8828 -97.9728 261° West 346 398 43,000  Level Kansas City Center
05:17PM 38.8689 -98.0947 262° West 347 399 43,000  Level Kansas City Center
05:18PM 38.8528 -98.2144 260° West 343 395 43,000  Level Kansas City Center
05:19PM 38.8378 -98.3358 261° West 345 397 43,000  Level Kansas City Center
05:20PM 38.8183 -98.4822 260° West 348 400 43,000  Level Kansas City Center
05:21PM 38.8033 -98.6044 261° West 350 403 43,000  Level Kansas City Center
05:22PM 38.7875 -98.7267 261° West 349 402 43,000  Level Kansas City Center
05:23PM 38.7719 -98.8492 261° West 350 403 43,000  Level Kansas City Center
05:24PM 38.7561 -98.9711 261° West 350 403 43,000  Level Kansas City Center
05:25PM 38.7400 -99.0936 260° West 349 402 43,000  Level Kansas City Center
05:26PM 38.7186 -99.2417 260° West 354 407 43,000  Level Kansas City Center
05:27PM 38.7028 -99.3636 261° West 351 404 43,000  Level Kansas City Center
05:28PM 38.6858 -99.4861 260° West 351 404 43,000  Level Kansas City Center
05:29PM 38.6672 -99.6239 260° West 348 400 43,000  Level Kansas City Center
05:30PM 38.6492 -99.7419 259° West 352 405 43,000  Level Kansas City Center
05:31PM 38.6306 -99.8786 260° West 351 404 43,000  Level Kansas City Center
05:32PM 38.6131 -99.9956 259° West 351 404 43,000  Level Kansas City Center
05:33PM 38.5975 -100.1139 260° West 352 405 43,000  Level Kansas City Center
05:34PM 38.5775 -100.2517 260° West 353 406 43,000  Level Kansas City Center
05:35PM 38.5597 -100.3706 259° West 356 410 43,000  Level Kansas City Center
05:36PM 38.5397 -100.5089 260° West 356 410 43,000  Level Kansas City Center
05:37PM 38.5219 -100.6281 259° West 357 411 43,000  Level Kansas City Center
05:38PM 38.5008 -100.7647 259° West 355 409 43,000  Level Kansas City Center
05:39PM 38.4836 -100.8842 260° West 357 411 43,000  Level Kansas City Center
05:40PM 38.4625 -101.0236 259° West 358 412 43,000  Level Kansas City Center
05:41PM 38.4408 -101.1633 259° West 363 418 43,000  Level Denver Center
05:43PM 38.4233 -101.2828 259° West 361 415 43,000  Level Denver Center
05:44PM 38.4008 -101.4236 259° West 364 419 43,000  Level Denver Center
05:45PM 38.3825 -101.5442 259° West 363 418 43,000  Level Denver Center
05:46PM 38.3603 -101.6853 259° West 366 421 43,000  Level Denver Center
05:47PM 38.3411 -101.8056 259° West 364 419 43,000  Level Denver Center
05:48PM 38.3183 -101.9478 259° West 368 423 43,000  Level Denver Center
05:49PM 38.2989 -102.0686 258° West 366 421 43,000  Level Denver Center
05:50PM 38.2789 -102.1906 258° West 368 423 43,000  Level Denver Center
05:51PM 38.2558 -102.3306 258° West 365 420 43,000  Level Denver Center
05:52PM 38.2353 -102.4536 258° West 371 427 43,000  Level Denver Center
05:53PM 38.2197 -102.5556 259° West 370 426 43,000  Level Denver Center
05:54PM 38.1911 -102.7169 257° West 368 423 43,000  Level Denver Center
05:55PM 38.1547 -102.8553 252° West 367 422 43,000  Level Denver Center
05:56PM 38.1225 -102.9736 251° West 369 425 43,000  Level Denver Center
05:57PM 38.0875 -103.1111 252° West 369 425 43,000  Level Denver Center
05:58PM 38.0581 -103.2303 253° West 369 425 43,000  Level Denver Center
05:59PM 38.0261 -103.3500 251° West 373 429 43,000  Level Denver Center
06:00PM 37.9892 -103.4906 252° West 376 433 43,000  Level Denver Center
06:01PM 37.9575 -103.6106 252° West 376 433 43,000  Level Denver Center
06:02PM 37.9206 -103.7500 251° West 376 433 43,000  Level Denver Center
06:03PM 37.8886 -103.8725 252° West 380 437 43,000  Level Denver Center
06:04PM 37.8500 -104.0133 251° West 382 440 43,000  Level Denver Center
06:05PM 37.8169 -104.1350 251° West 385 443 43,000  Level Denver Center
06:06PM 37.7778 -104.2775 251° West 387 445 43,000  Level Denver Center
06:07PM 37.7444 -104.3992 251° West 387 445 43,000  Level Denver Center
06:08PM 37.7053 -104.5442 251° West 392 451 43,000  Level Denver Center
06:09PM 37.6722 -104.6675 251° West 390 449 43,000  Level Denver Center
06:10PM 37.6317 -104.8136 251° West 395 455 43,000  Level Denver Center
06:11PM 37.5961 -104.9414 251° West 402 463 43,000  Level Denver Center
06:12PM 37.5536 -105.0886 250° West 400 460 43,000  Level Denver Center
06:13PM 37.5208 -105.2144 252° West 398 458 43,000  Level Denver Center
06:14PM 37.4850 -105.3383 250° West 396 456 43,000  Level Denver Center
06:15PM 37.4447 -105.4825 251° West 393 452 43,000  Level Denver Center
06:16PM 37.4164 -105.5797 250° West 381 438 43,000  Level Denver Center
06:18PM 37.3725 -105.7311 250° West 364 419 43,000  Level Denver Center
06:19PM 37.3397 -105.8431 250° West 359 413 43,000  Level Denver Center
06:20PM 37.3069 -105.9758 253° West 356 410 43,000  Level Denver Center
06:21PM 37.2764 -106.0933 252° West 364 419 43,000  Level Denver Center
06:22PM 37.2406 -106.2392 253° West 388 447 43,000  Level Denver Center
06:23PM 37.2075 -106.3669 252° West 400 460 43,000  Level Denver Center
06:24PM 37.1744 -106.4969 252° West 408 470 43,000  Level Denver Center
06:25PM 37.1406 -106.6261 252° West 408 470 43,000  Level Denver Center
06:26PM 37.1022 -106.7778 252° West 408 470 43,000  Level Denver Center
06:27PM 37.0622 -106.9281 252° West 407 468 43,000  Level Denver Center
06:28PM 37.0294 -107.0553 252° West 403 464 43,000  Level Denver Center
06:29PM 36.9889 -107.2033 251° West 403 464 43,000  Level Denver Center
06:30PM 36.9567 -107.3311 253° West 404 465 43,000  Level Denver Center
06:31PM 36.9167 -107.4778 251° West 400 460 43,000  Level Denver Center
06:32PM 36.8844 -107.6003 252° West 390 449 43,000  Level Denver Center
06:33PM 36.8508 -107.7231 251° West 389 448 43,000  Level Denver Center
06:34PM 36.8114 -107.8683 251° West 394 453 43,000  Level Denver Center
06:35PM 36.7764 -107.9914 250° West 394 453 43,000  Level Denver Center
06:36PM 36.7478 -108.0950 251° West 395 455 43,000  Level Denver Center
06:37PM 36.6828 -108.2511 243° Southwest 400 460 43,000  Level Denver Center
06:38PM 36.6253 -108.3872 242° Southwest 398 458 43,000  Level Denver Center
06:39PM 36.5747 -108.5047 242° Southwest 402 463 43,000  Level Denver Center
06:40PM 36.5156 -108.6431 242° Southwest 406 467 43,000  Level Denver Center
06:41PM 36.4650 -108.7594 242° Southwest 403 464 43,000  Level Denver Center
06:42PM 36.4139 -108.8772 242° Southwest 405 466 43,000  Level Denver Center
06:43PM 36.3550 -109.0133 242° Southwest 405 466 43,000  Level Denver Center
06:44PM 36.3036 -109.1314 242° Southwest 409 471 43,000  Level Denver Center
06:45PM 36.2431 -109.2686 241° Southwest 409 471 43,000  Level Denver Center
06:46PM 36.1914 -109.3861 241° Southwest 408 470 43,000  Level Denver Center
06:47PM 36.1308 -109.5236 241° Southwest 408 470 43,000  Level Denver Center
06:48PM 36.0794 -109.6392 241° Southwest 404 465 43,000  Level Denver Center
06:49PM 36.0197 -109.7717 241° Southwest 398 458 43,000 -300 Level Denver Center
06:50PM 35.9789 -109.8656 242° Southwest 393 452 42,500 -1,560 Descending Denver Center
06:52PM 35.9122 -110.0125 241° Southwest 386 444 39,800 -2,340 Descending Denver Center
06:53PM 35.8581 -110.1303 240° Southwest 379 436 37,700 -1,860 Descending Denver Center
06:53PM 35.8292 -110.1897 239° Southwest 373 429 36,700 -1,860 Descending Albuquerque Center
06:54PM 35.7769 -110.3075 241° Southwest 356 410 34,600 -1,320 Descending Albuquerque Center
06:55PM 35.7300 -110.4097 241° Southwest 355 409 34,000 -300 Descending Albuquerque Center
06:56PM 35.6722 -110.5328 240° Southwest 369 425 34,000 -900 Level Albuquerque Center
06:57PM 35.6244 -110.6414 242° Southwest 376 433 32,200 -1,920 Descending Albuquerque Center
06:58PM 35.5647 -110.7683 240° Southwest 381 438 30,100 -1,740 Descending Albuquerque Center
06:59PM 35.5161 -110.8728 240° Southwest 372 428 28,700 -1,020 Descending Albuquerque Center
07:00PM 35.4622 -110.9919 241° Southwest 361 415 28,000 -360 Descending Albuquerque Center
07:01PM 35.4153 -111.0939 241° Southwest 358 412 28,000 -180 Level Albuquerque Center
07:03PM 35.3289 -111.1917 223° Southwest 394 453 27,700 -660 Descending Albuquerque Center
07:04PM 35.2492 -111.2678 218° Southwest 382 440 26,700 -1,020 Descending Albuquerque Center
07:05PM 35.1658 -111.3392 215° Southwest 373 429 25,700 -1,020 Descending Albuquerque Center
07:06PM 35.0831 -111.4111 215° Southwest 368 423 24,700 -1,020 Descending Albuquerque Center
07:07PM 35.0022 -111.4825 216° Southwest 363 418 23,700 -1,080 Descending Albuquerque Center
07:08PM 34.9211 -111.5528 215° Southwest 361 415 22,500 -1,440 Descending Albuquerque Center
07:09PM 34.8233 -111.6378 216° Southwest 359 413 20,800 -1,500 Descending Albuquerque Center
07:10PM 34.7419 -111.7086 216° Southwest 361 415 19,400 -1,440 Descending Albuquerque Center
07:11PM 34.6600 -111.7794 215° Southwest 362 417 17,900 -1,140 Descending Albuquerque Center
07:12PM 34.5806 -111.8331 209° Southwest 336 387 17,100 -900 Descending Albuquerque Center
07:13PM 34.5036 -111.8561 194° South 291 335 16,100 -1,080 Descending Albuquerque Center
07:14PM 34.4250 -111.8794 194° South 288 331 14,900 -1,260 Descending Albuquerque Center
07:15PM 34.3475 -111.9028 194° South 288 331 13,600 -1,320 Descending Albuquerque Center
07:16PM 34.2561 -111.9189 188° South 283 326 12,200 -1,320 Descending Albuquerque Center
07:17PM 34.1778 -111.9231 183° South 283 326 11,000 -900 Descending Albuquerque Center
07:18PM 34.1031 -111.9294 184° South 271 312 10,400 -1,260 Descending Albuquerque Center
07:19PM 34.0300 -111.9369 185° South 268 308 8,400 -1,200 Descending Albuquerque Center
07:20PM 33.9628 -111.9450 186° South 250 288 8,000 -840 Descending Albuquerque Center
07:21PM 33.8928 -111.9658 194° South 220 253 6,700 -1,020 Descending Albuquerque Center
07:22PM 33.8339 -111.9844 195° South 220 253 6,000 -720 Descending Albuquerque Center
07:23PM 33.7772 -111.9975 191° South 210 242 5,300 -1,200 Descending Albuquerque Center
07:24PM 33.7178 -112.0069 188° South 216 249 3,600 -1,560 Descending Albuquerque Center
07:25PM 33.6897 -112.0442 228° Southwest 179 206 2,100 -960 Descending Albuquerque Center
07:26PM 33.6875 -112.0947 267° West 164 189 1,700 -420 Descending Albuquerque Center
07:28PM 33.6883 -112.0826 180° South  Level Estimated